sensor_id;sensor_type;location;lat;lon;timestamp;P1;durP1;ratioP1;P2;durP2;ratioP2
29500;SDS011;16450;50.288;10.966;2023-11-19T00:02:40;5.60;;;4.63;;
29500;SDS011;16450;50.288;10.966;2023-11-19T00:05:43;7.07;;;4.53;;
29500;SDS011;16450;50.288;10.966;2023-11-19T00:08:49;7.00;;;4.80;;
29500;SDS011;16450;50.288;10.966;2023-11-19T00:11:51;9.20;;;5.03;;
29500;SDS011;16450;50.288;10.966;2023-11-19T00:14:55;5.60;;;4.67;;
29500;SDS011;16450;50.288;10.966;2023-11-19T00:17:57;6.77;;;4.43;;
29500;SDS011;16450;50.288;10.966;2023-11-19T00:21:02;5.87;;;4.43;;
29500;SDS011;16450;50.288;10.966;2023-11-19T00:24:04;6.83;;;4.63;;
29500;SDS011;16450;50.288;10.966;2023-11-19T00:27:06;6.13;;;4.33;;
29500;SDS011;16450;50.288;10.966;2023-11-19T00:30:09;6.63;;;4.90;;
29500;SDS011;16450;50.288;10.966;2023-11-19T00:33:12;5.67;;;4.77;;
29500;SDS011;16450;50.288;10.966;2023-11-19T00:36:13;6.43;;;4.67;;
29500;SDS011;16450;50.288;10.966;2023-11-19T00:39:15;6.93;;;5.13;;
29500;SDS011;16450;50.288;10.966;2023-11-19T00:42:17;7.00;;;4.57;;
29500;SDS011;16450;50.288;10.966;2023-11-19T00:45:19;8.03;;;4.63;;
29500;SDS011;16450;50.288;10.966;2023-11-19T00:48:21;9.80;;;5.47;;
29500;SDS011;16450;50.288;10.966;2023-11-19T00:51:23;7.80;;;5.17;;
29500;SDS011;16450;50.288;10.966;2023-11-19T00:54:25;7.87;;;6.03;;
29500;SDS011;16450;50.288;10.966;2023-11-19T00:57:27;8.87;;;5.60;;
29500;SDS011;16450;50.288;10.966;2023-11-19T01:00:29;7.70;;;5.53;;
29500;SDS011;16450;50.288;10.966;2023-11-19T01:03:33;7.87;;;6.07;;
29500;SDS011;16450;50.288;10.966;2023-11-19T01:06:36;8.40;;;6.00;;
29500;SDS011;16450;50.288;10.966;2023-11-19T01:09:49;8.60;;;5.90;;
29500;SDS011;16450;50.288;10.966;2023-11-19T01:12:52;7.67;;;5.80;;
29500;SDS011;16450;50.288;10.966;2023-11-19T01:15:53;10.03;;;6.20;;
29500;SDS011;16450;50.288;10.966;2023-11-19T01:18:57;8.77;;;6.50;;
29500;SDS011;16450;50.288;10.966;2023-11-19T01:22:17;8.20;;;6.33;;
29500;SDS011;16450;50.288;10.966;2023-11-19T01:25:20;7.13;;;6.10;;
29500;SDS011;16450;50.288;10.966;2023-11-19T01:28:22;8.97;;;6.13;;
29500;SDS011;16450;50.288;10.966;2023-11-19T01:31:24;8.37;;;5.73;;
29500;SDS011;16450;50.288;10.966;2023-11-19T01:34:25;8.07;;;6.10;;
29500;SDS011;16450;50.288;10.966;2023-11-19T01:37:27;8.20;;;6.17;;
29500;SDS011;16450;50.288;10.966;2023-11-19T01:40:29;7.13;;;5.63;;
29500;SDS011;16450;50.288;10.966;2023-11-19T01:43:35;7.03;;;5.50;;
29500;SDS011;16450;50.288;10.966;2023-11-19T01:46:38;6.93;;;5.40;;
29500;SDS011;16450;50.288;10.966;2023-11-19T01:49:42;7.40;;;5.60;;
29500;SDS011;16450;50.288;10.966;2023-11-19T01:52:44;6.57;;;5.20;;
29500;SDS011;16450;50.288;10.966;2023-11-19T01:55:46;7.40;;;5.43;;
29500;SDS011;16450;50.288;10.966;2023-11-19T01:58:49;7.57;;;5.03;;
29500;SDS011;16450;50.288;10.966;2023-11-19T02:01:52;7.43;;;4.80;;
29500;SDS011;16450;50.288;10.966;2023-11-19T02:04:59;5.50;;;4.60;;
29500;SDS011;16450;50.288;10.966;2023-11-19T02:08:01;6.70;;;4.93;;
29500;SDS011;16450;50.288;10.966;2023-11-19T02:11:04;6.80;;;4.97;;
29500;SDS011;16450;50.288;10.966;2023-11-19T02:14:08;6.33;;;5.10;;
29500;SDS011;16450;50.288;10.966;2023-11-19T02:17:24;6.80;;;5.10;;
29500;SDS011;16450;50.288;10.966;2023-11-19T02:20:27;7.57;;;4.83;;
29500;SDS011;16450;50.288;10.966;2023-11-19T02:23:29;6.37;;;4.83;;
29500;SDS011;16450;50.288;10.966;2023-11-19T02:26:34;7.60;;;5.13;;
29500;SDS011;16450;50.288;10.966;2023-11-19T02:29:58;6.67;;;5.00;;
29500;SDS011;16450;50.288;10.966;2023-11-19T02:33:00;8.13;;;5.60;;
29500;SDS011;16450;50.288;10.966;2023-11-19T02:36:07;7.07;;;5.00;;
29500;SDS011;16450;50.288;10.966;2023-11-19T02:39:09;6.10;;;4.70;;
29500;SDS011;16450;50.288;10.966;2023-11-19T02:42:13;6.77;;;4.80;;
29500;SDS011;16450;50.288;10.966;2023-11-19T02:45:15;6.20;;;4.90;;
29500;SDS011;16450;50.288;10.966;2023-11-19T02:48:17;6.73;;;5.20;;
29500;SDS011;16450;50.288;10.966;2023-11-19T02:51:19;7.10;;;5.23;;
29500;SDS011;16450;50.288;10.966;2023-11-19T02:54:21;6.33;;;4.67;;
29500;SDS011;16450;50.288;10.966;2023-11-19T02:57:30;7.17;;;4.70;;
29500;SDS011;16450;50.288;10.966;2023-11-19T03:00:33;7.43;;;4.40;;
29500;SDS011;16450;50.288;10.966;2023-11-19T03:03:38;7.67;;;4.60;;
29500;SDS011;16450;50.288;10.966;2023-11-19T03:06:42;4.93;;;4.20;;
29500;SDS011;16450;50.288;10.966;2023-11-19T03:09:44;5.80;;;4.40;;
29500;SDS011;16450;50.288;10.966;2023-11-19T03:12:46;7.73;;;4.53;;
29500;SDS011;16450;50.288;10.966;2023-11-19T03:15:47;5.93;;;4.07;;
29500;SDS011;16450;50.288;10.966;2023-11-19T03:18:49;4.37;;;3.83;;
29500;SDS011;16450;50.288;10.966;2023-11-19T03:21:51;4.53;;;3.63;;
29500;SDS011;16450;50.288;10.966;2023-11-19T03:24:53;4.53;;;3.70;;
29500;SDS011;16450;50.288;10.966;2023-11-19T03:27:55;4.43;;;3.43;;
29500;SDS011;16450;50.288;10.966;2023-11-19T03:30:56;4.83;;;3.40;;
29500;SDS011;16450;50.288;10.966;2023-11-19T03:33:58;3.20;;;2.60;;
29500;SDS011;16450;50.288;10.966;2023-11-19T03:37:00;2.77;;;2.47;;
29500;SDS011;16450;50.288;10.966;2023-11-19T03:40:02;3.20;;;2.87;;
29500;SDS011;16450;50.288;10.966;2023-11-19T03:43:05;4.67;;;2.70;;
29500;SDS011;16450;50.288;10.966;2023-11-19T03:46:20;3.70;;;3.13;;
29500;SDS011;16450;50.288;10.966;2023-11-19T03:49:23;3.87;;;3.10;;
29500;SDS011;16450;50.288;10.966;2023-11-19T03:52:25;3.47;;;3.00;;
29500;SDS011;16450;50.288;10.966;2023-11-19T03:55:28;4.07;;;3.23;;
29500;SDS011;16450;50.288;10.966;2023-11-19T03:58:30;5.63;;;3.50;;
29500;SDS011;16450;50.288;10.966;2023-11-19T04:01:32;4.57;;;3.67;;
29500;SDS011;16450;50.288;10.966;2023-11-19T04:04:34;3.83;;;3.33;;
29500;SDS011;16450;50.288;10.966;2023-11-19T04:07:36;4.30;;;3.67;;
29500;SDS011;16450;50.288;10.966;2023-11-19T04:10:38;5.47;;;4.00;;
29500;SDS011;16450;50.288;10.966;2023-11-19T04:13:40;5.70;;;4.20;;
29500;SDS011;16450;50.288;10.966;2023-11-19T04:16:43;5.60;;;3.97;;
29500;SDS011;16450;50.288;10.966;2023-11-19T04:19:46;6.07;;;4.57;;
29500;SDS011;16450;50.288;10.966;2023-11-19T04:22:49;6.77;;;5.20;;
29500;SDS011;16450;50.288;10.966;2023-11-19T04:25:52;6.50;;;4.90;;
29500;SDS011;16450;50.288;10.966;2023-11-19T04:28:54;6.57;;;5.10;;
29500;SDS011;16450;50.288;10.966;2023-11-19T04:31:56;7.83;;;5.47;;
29500;SDS011;16450;50.288;10.966;2023-11-19T04:34:58;8.43;;;5.40;;
29500;SDS011;16450;50.288;10.966;2023-11-19T04:38:00;7.90;;;5.23;;
29500;SDS011;16450;50.288;10.966;2023-11-19T04:41:01;7.60;;;5.70;;
29500;SDS011;16450;50.288;10.966;2023-11-19T04:44:04;8.30;;;6.07;;
29500;SDS011;16450;50.288;10.966;2023-11-19T04:47:05;7.33;;;5.70;;
29500;SDS011;16450;50.288;10.966;2023-11-19T04:50:07;7.77;;;5.27;;
29500;SDS011;16450;50.288;10.966;2023-11-19T04:53:12;6.70;;;5.27;;
29500;SDS011;16450;50.288;10.966;2023-11-19T04:56:14;7.37;;;5.30;;
29500;SDS011;16450;50.288;10.966;2023-11-19T04:59:17;7.20;;;5.27;;
29500;SDS011;16450;50.288;10.966;2023-11-19T05:02:19;7.37;;;5.47;;
29500;SDS011;16450;50.288;10.966;2023-11-19T05:05:21;7.90;;;5.77;;
29500;SDS011;16450;50.288;10.966;2023-11-19T05:08:23;8.47;;;6.17;;
29500;SDS011;16450;50.288;10.966;2023-11-19T05:11:25;10.03;;;6.07;;
29500;SDS011;16450;50.288;10.966;2023-11-19T05:14:27;8.53;;;6.00;;
29500;SDS011;16450;50.288;10.966;2023-11-19T05:17:29;8.57;;;6.40;;
29500;SDS011;16450;50.288;10.966;2023-11-19T05:20:31;9.40;;;6.80;;
29500;SDS011;16450;50.288;10.966;2023-11-19T05:23:33;7.93;;;5.93;;
29500;SDS011;16450;50.288;10.966;2023-11-19T05:26:35;8.87;;;6.50;;
29500;SDS011;16450;50.288;10.966;2023-11-19T05:29:37;8.40;;;6.17;;
29500;SDS011;16450;50.288;10.966;2023-11-19T05:32:40;10.00;;;5.97;;
29500;SDS011;16450;50.288;10.966;2023-11-19T05:35:42;9.33;;;6.23;;
29500;SDS011;16450;50.288;10.966;2023-11-19T05:38:44;6.57;;;4.97;;
29500;SDS011;16450;50.288;10.966;2023-11-19T05:41:46;8.67;;;6.00;;
29500;SDS011;16450;50.288;10.966;2023-11-19T05:44:48;7.80;;;5.67;;
29500;SDS011;16450;50.288;10.966;2023-11-19T05:47:49;8.33;;;5.70;;
29500;SDS011;16450;50.288;10.966;2023-11-19T05:50:53;7.47;;;5.37;;
29500;SDS011;16450;50.288;10.966;2023-11-19T05:53:56;7.03;;;5.70;;
29500;SDS011;16450;50.288;10.966;2023-11-19T05:56:58;8.13;;;5.50;;
29500;SDS011;16450;50.288;10.966;2023-11-19T06:00:00;8.87;;;5.03;;
29500;SDS011;16450;50.288;10.966;2023-11-19T06:03:02;7.43;;;5.40;;
29500;SDS011;16450;50.288;10.966;2023-11-19T06:06:06;7.27;;;5.23;;
29500;SDS011;16450;50.288;10.966;2023-11-19T06:09:08;8.93;;;6.00;;
29500;SDS011;16450;50.288;10.966;2023-11-19T06:12:14;7.80;;;5.60;;
29500;SDS011;16450;50.288;10.966;2023-11-19T06:15:16;9.97;;;5.27;;
29500;SDS011;16450;50.288;10.966;2023-11-19T06:18:18;10.50;;;5.83;;
29500;SDS011;16450;50.288;10.966;2023-11-19T06:21:21;9.13;;;6.27;;
29500;SDS011;16450;50.288;10.966;2023-11-19T06:24:23;11.40;;;6.50;;
29500;SDS011;16450;50.288;10.966;2023-11-19T06:27:25;9.47;;;6.80;;
29500;SDS011;16450;50.288;10.966;2023-11-19T06:30:27;10.70;;;6.47;;
29500;SDS011;16450;50.288;10.966;2023-11-19T06:33:31;13.50;;;8.67;;
29500;SDS011;16450;50.288;10.966;2023-11-19T06:36:32;9.80;;;6.63;;
29500;SDS011;16450;50.288;10.966;2023-11-19T06:39:35;13.13;;;8.17;;
29500;SDS011;16450;50.288;10.966;2023-11-19T06:42:37;9.90;;;6.93;;
29500;SDS011;16450;50.288;10.966;2023-11-19T06:45:40;12.57;;;7.60;;
29500;SDS011;16450;50.288;10.966;2023-11-19T06:48:41;12.20;;;8.10;;
29500;SDS011;16450;50.288;10.966;2023-11-19T06:51:45;9.97;;;7.50;;
29500;SDS011;16450;50.288;10.966;2023-11-19T06:54:47;14.30;;;8.40;;
29500;SDS011;16450;50.288;10.966;2023-11-19T06:57:49;13.00;;;6.97;;
29500;SDS011;16450;50.288;10.966;2023-11-19T07:00:51;11.30;;;7.83;;
29500;SDS011;16450;50.288;10.966;2023-11-19T07:03:53;14.80;;;7.60;;
29500;SDS011;16450;50.288;10.966;2023-11-19T07:06:55;11.67;;;8.30;;
29500;SDS011;16450;50.288;10.966;2023-11-19T07:09:57;12.67;;;8.07;;
29500;SDS011;16450;50.288;10.966;2023-11-19T07:12:58;12.10;;;8.20;;
29500;SDS011;16450;50.288;10.966;2023-11-19T07:16:00;12.53;;;7.93;;
29500;SDS011;16450;50.288;10.966;2023-11-19T07:19:02;13.50;;;8.47;;
29500;SDS011;16450;50.288;10.966;2023-11-19T07:22:05;12.33;;;7.87;;
29500;SDS011;16450;50.288;10.966;2023-11-19T07:25:08;12.13;;;7.97;;
29500;SDS011;16450;50.288;10.966;2023-11-19T07:28:10;15.50;;;8.93;;
29500;SDS011;16450;50.288;10.966;2023-11-19T07:31:12;19.43;;;11.90;;
29500;SDS011;16450;50.288;10.966;2023-11-19T07:34:14;17.07;;;11.43;;
29500;SDS011;16450;50.288;10.966;2023-11-19T07:37:16;19.03;;;11.17;;
29500;SDS011;16450;50.288;10.966;2023-11-19T07:40:18;24.27;;;14.13;;
29500;SDS011;16450;50.288;10.966;2023-11-19T07:43:21;24.57;;;14.27;;
29500;SDS011;16450;50.288;10.966;2023-11-19T07:46:22;28.67;;;14.87;;
29500;SDS011;16450;50.288;10.966;2023-11-19T07:49:24;24.13;;;14.70;;
29500;SDS011;16450;50.288;10.966;2023-11-19T07:52:26;25.40;;;15.70;;
29500;SDS011;16450;50.288;10.966;2023-11-19T07:55:28;22.30;;;14.23;;
29500;SDS011;16450;50.288;10.966;2023-11-19T07:58:33;21.20;;;13.80;;
29500;SDS011;16450;50.288;10.966;2023-11-19T08:01:35;23.93;;;14.77;;
29500;SDS011;16450;50.288;10.966;2023-11-19T08:04:37;22.53;;;13.40;;
29500;SDS011;16450;50.288;10.966;2023-11-19T08:07:41;26.03;;;14.60;;
29500;SDS011;16450;50.288;10.966;2023-11-19T08:10:43;16.37;;;10.87;;
29500;SDS011;16450;50.288;10.966;2023-11-19T08:13:45;15.20;;;9.97;;
29500;SDS011;16450;50.288;10.966;2023-11-19T08:16:47;13.97;;;9.43;;
29500;SDS011;16450;50.288;10.966;2023-11-19T08:19:50;11.60;;;8.33;;
29500;SDS011;16450;50.288;10.966;2023-11-19T08:22:52;12.57;;;8.33;;
29500;SDS011;16450;50.288;10.966;2023-11-19T08:25:54;11.90;;;7.97;;
29500;SDS011;16450;50.288;10.966;2023-11-19T08:28:56;9.80;;;7.30;;
29500;SDS011;16450;50.288;10.966;2023-11-19T08:31:59;8.37;;;6.07;;
29500;SDS011;16450;50.288;10.966;2023-11-19T08:35:03;8.90;;;6.07;;
29500;SDS011;16450;50.288;10.966;2023-11-19T08:38:07;7.90;;;5.37;;
29500;SDS011;16450;50.288;10.966;2023-11-19T08:41:09;7.50;;;4.23;;
29500;SDS011;16450;50.288;10.966;2023-11-19T08:44:11;5.57;;;3.53;;
29500;SDS011;16450;50.288;10.966;2023-11-19T08:47:13;4.27;;;2.93;;
29500;SDS011;16450;50.288;10.966;2023-11-19T08:50:17;3.43;;;2.40;;
29500;SDS011;16450;50.288;10.966;2023-11-19T08:53:19;3.33;;;1.90;;
29500;SDS011;16450;50.288;10.966;2023-11-19T08:56:22;3.67;;;1.60;;
29500;SDS011;16450;50.288;10.966;2023-11-19T08:59:23;3.80;;;2.03;;
29500;SDS011;16450;50.288;10.966;2023-11-19T09:02:25;3.97;;;2.03;;
29500;SDS011;16450;50.288;10.966;2023-11-19T09:05:27;5.00;;;1.87;;
29500;SDS011;16450;50.288;10.966;2023-11-19T09:08:29;2.30;;;1.47;;
29500;SDS011;16450;50.288;10.966;2023-11-19T09:11:31;3.37;;;2.00;;
29500;SDS011;16450;50.288;10.966;2023-11-19T09:14:33;3.07;;;1.70;;
29500;SDS011;16450;50.288;10.966;2023-11-19T09:17:35;5.33;;;1.67;;
29500;SDS011;16450;50.288;10.966;2023-11-19T09:20:37;3.13;;;1.70;;
29500;SDS011;16450;50.288;10.966;2023-11-19T09:23:40;3.20;;;1.77;;
29500;SDS011;16450;50.288;10.966;2023-11-19T09:26:43;3.73;;;2.00;;
29500;SDS011;16450;50.288;10.966;2023-11-19T09:29:44;2.63;;;1.70;;
29500;SDS011;16450;50.288;10.966;2023-11-19T09:32:47;5.23;;;2.13;;
29500;SDS011;16450;50.288;10.966;2023-11-19T09:35:50;5.27;;;1.90;;
29500;SDS011;16450;50.288;10.966;2023-11-19T09:38:52;4.07;;;2.30;;
29500;SDS011;16450;50.288;10.966;2023-11-19T09:41:54;7.10;;;2.33;;
29500;SDS011;16450;50.288;10.966;2023-11-19T09:44:55;2.33;;;1.90;;
29500;SDS011;16450;50.288;10.966;2023-11-19T09:47:59;5.10;;;1.93;;
29500;SDS011;16450;50.288;10.966;2023-11-19T09:51:02;2.07;;;1.80;;
29500;SDS011;16450;50.288;10.966;2023-11-19T09:54:06;2.70;;;1.90;;
29500;SDS011;16450;50.288;10.966;2023-11-19T09:57:08;3.93;;;1.90;;
29500;SDS011;16450;50.288;10.966;2023-11-19T10:00:13;3.37;;;1.90;;
29500;SDS011;16450;50.288;10.966;2023-11-19T10:03:17;2.93;;;1.77;;
29500;SDS011;16450;50.288;10.966;2023-11-19T10:06:19;4.13;;;2.10;;
29500;SDS011;16450;50.288;10.966;2023-11-19T10:09:21;3.93;;;1.80;;
29500;SDS011;16450;50.288;10.966;2023-11-19T10:12:23;4.63;;;1.97;;
29500;SDS011;16450;50.288;10.966;2023-11-19T10:15:25;5.33;;;1.90;;
29500;SDS011;16450;50.288;10.966;2023-11-19T10:18:31;4.63;;;1.63;;
29500;SDS011;16450;50.288;10.966;2023-11-19T10:21:33;4.27;;;1.63;;
29500;SDS011;16450;50.288;10.966;2023-11-19T10:24:35;4.27;;;1.63;;
29500;SDS011;16450;50.288;10.966;2023-11-19T10:27:43;4.20;;;1.53;;
29500;SDS011;16450;50.288;10.966;2023-11-19T10:30:45;3.77;;;1.53;;
29500;SDS011;16450;50.288;10.966;2023-11-19T10:33:50;6.47;;;1.80;;
29500;SDS011;16450;50.288;10.966;2023-11-19T10:36:52;3.87;;;1.40;;
29500;SDS011;16450;50.288;10.966;2023-11-19T10:39:54;7.63;;;1.80;;
29500;SDS011;16450;50.288;10.966;2023-11-19T10:43:03;3.37;;;1.60;;
29500;SDS011;16450;50.288;10.966;2023-11-19T10:46:08;3.63;;;1.50;;
29500;SDS011;16450;50.288;10.966;2023-11-19T10:49:12;4.63;;;1.60;;
29500;SDS011;16450;50.288;10.966;2023-11-19T10:52:17;6.27;;;1.70;;
29500;SDS011;16450;50.288;10.966;2023-11-19T10:55:23;3.27;;;1.60;;
29500;SDS011;16450;50.288;10.966;2023-11-19T10:58:29;3.87;;;1.50;;
29500;SDS011;16450;50.288;10.966;2023-11-19T11:01:43;5.07;;;1.47;;
29500;SDS011;16450;50.288;10.966;2023-11-19T11:04:48;4.60;;;1.50;;
29500;SDS011;16450;50.288;10.966;2023-11-19T11:07:52;4.80;;;1.60;;
29500;SDS011;16450;50.288;10.966;2023-11-19T11:10:57;6.83;;;1.70;;
29500;SDS011;16450;50.288;10.966;2023-11-19T11:13:59;5.87;;;1.50;;
29500;SDS011;16450;50.288;10.966;2023-11-19T11:17:04;7.07;;;1.37;;
29500;SDS011;16450;50.288;10.966;2023-11-19T11:20:09;6.30;;;1.57;;
29500;SDS011;16450;50.288;10.966;2023-11-19T11:34:11;7.00;;;1.80;;
29500;SDS011;16450;50.288;10.966;2023-11-19T11:40:14;7.63;;;1.80;;
29500;SDS011;16450;50.288;10.966;2023-11-19T11:46:57;4.30;;;1.50;;
29500;SDS011;16450;50.288;10.966;2023-11-19T11:50:05;7.53;;;1.33;;
29500;SDS011;16450;50.288;10.966;2023-11-19T11:53:20;5.00;;;1.60;;
29500;SDS011;16450;50.288;10.966;2023-11-19T11:56:32;9.67;;;1.83;;
29500;SDS011;16450;50.288;10.966;2023-11-19T12:02:45;10.03;;;1.83;;
29500;SDS011;16450;50.288;10.966;2023-11-19T12:05:47;6.80;;;1.50;;
29500;SDS011;16450;50.288;10.966;2023-11-19T12:08:50;7.00;;;1.60;;
29500;SDS011;16450;50.288;10.966;2023-11-19T12:12:06;5.03;;;1.50;;
29500;SDS011;16450;50.288;10.966;2023-11-19T12:15:13;9.67;;;1.67;;
29500;SDS011;16450;50.288;10.966;2023-11-19T12:18:20;7.67;;;2.20;;
29500;SDS011;16450;50.288;10.966;2023-11-19T12:21:31;7.10;;;1.57;;
29500;SDS011;16450;50.288;10.966;2023-11-19T12:24:34;8.93;;;1.73;;
29500;SDS011;16450;50.288;10.966;2023-11-19T12:27:36;9.80;;;1.70;;
29500;SDS011;16450;50.288;10.966;2023-11-19T12:30:40;8.07;;;1.83;;
29500;SDS011;16450;50.288;10.966;2023-11-19T12:33:42;10.17;;;2.27;;
29500;SDS011;16450;50.288;10.966;2023-11-19T12:36:44;9.33;;;2.00;;
29500;SDS011;16450;50.288;10.966;2023-11-19T12:39:46;12.07;;;3.20;;
29500;SDS011;16450;50.288;10.966;2023-11-19T12:42:48;14.50;;;5.27;;
29500;SDS011;16450;50.288;10.966;2023-11-19T12:45:51;11.00;;;2.80;;
29500;SDS011;16450;50.288;10.966;2023-11-19T12:48:53;10.67;;;3.17;;
29500;SDS011;16450;50.288;10.966;2023-11-19T12:51:54;10.97;;;2.40;;
29500;SDS011;16450;50.288;10.966;2023-11-19T12:54:56;8.90;;;2.13;;
29500;SDS011;16450;50.288;10.966;2023-11-19T12:57:59;10.10;;;1.70;;
29500;SDS011;16450;50.288;10.966;2023-11-19T13:04:17;10.33;;;2.00;;
29500;SDS011;16450;50.288;10.966;2023-11-19T13:07:20;15.17;;;2.57;;
29500;SDS011;16450;50.288;10.966;2023-11-19T13:10:23;8.47;;;1.67;;
29500;SDS011;16450;50.288;10.966;2023-11-19T13:13:24;12.67;;;1.80;;
29500;SDS011;16450;50.288;10.966;2023-11-19T13:16:27;10.07;;;1.67;;
29500;SDS011;16450;50.288;10.966;2023-11-19T13:19:30;10.00;;;2.00;;
29500;SDS011;16450;50.288;10.966;2023-11-19T13:22:31;7.73;;;1.90;;
29500;SDS011;16450;50.288;10.966;2023-11-19T13:25:33;13.80;;;2.03;;
29500;SDS011;16450;50.288;10.966;2023-11-19T13:28:35;11.50;;;1.97;;
29500;SDS011;16450;50.288;10.966;2023-11-19T13:31:37;7.43;;;1.63;;
29500;SDS011;16450;50.288;10.966;2023-11-19T13:34:39;11.40;;;2.27;;
29500;SDS011;16450;50.288;10.966;2023-11-19T13:37:41;9.67;;;1.50;;
29500;SDS011;16450;50.288;10.966;2023-11-19T13:40:43;7.33;;;1.80;;
29500;SDS011;16450;50.288;10.966;2023-11-19T13:43:45;8.60;;;1.90;;
29500;SDS011;16450;50.288;10.966;2023-11-19T13:46:47;8.23;;;1.80;;
29500;SDS011;16450;50.288;10.966;2023-11-19T13:49:49;8.77;;;1.63;;
29500;SDS011;16450;50.288;10.966;2023-11-19T13:52:51;9.07;;;1.40;;
29500;SDS011;16450;50.288;10.966;2023-11-19T13:55:53;6.13;;;1.60;;
29500;SDS011;16450;50.288;10.966;2023-11-19T13:58:55;11.50;;;1.80;;
29500;SDS011;16450;50.288;10.966;2023-11-19T14:01:57;11.90;;;1.83;;
29500;SDS011;16450;50.288;10.966;2023-11-19T14:05:01;8.43;;;1.60;;
29500;SDS011;16450;50.288;10.966;2023-11-19T14:08:03;9.80;;;1.90;;
29500;SDS011;16450;50.288;10.966;2023-11-19T14:11:24;12.17;;;1.70;;
29500;SDS011;16450;50.288;10.966;2023-11-19T14:14:26;8.80;;;2.10;;
29500;SDS011;16450;50.288;10.966;2023-11-19T14:17:28;8.00;;;1.70;;
29500;SDS011;16450;50.288;10.966;2023-11-19T14:20:29;10.07;;;1.80;;
29500;SDS011;16450;50.288;10.966;2023-11-19T14:23:31;10.97;;;1.70;;
29500;SDS011;16450;50.288;10.966;2023-11-19T14:26:33;8.77;;;2.00;;
29500;SDS011;16450;50.288;10.966;2023-11-19T14:29:35;8.43;;;1.60;;
29500;SDS011;16450;50.288;10.966;2023-11-19T14:32:38;11.77;;;2.00;;
29500;SDS011;16450;50.288;10.966;2023-11-19T14:35:40;9.37;;;1.73;;
29500;SDS011;16450;50.288;10.966;2023-11-19T14:38:42;9.73;;;1.70;;
29500;SDS011;16450;50.288;10.966;2023-11-19T14:41:44;9.00;;;1.93;;
29500;SDS011;16450;50.288;10.966;2023-11-19T14:44:46;11.63;;;2.27;;
29500;SDS011;16450;50.288;10.966;2023-11-19T14:47:48;12.10;;;1.93;;
29500;SDS011;16450;50.288;10.966;2023-11-19T14:50:50;12.83;;;2.13;;
29500;SDS011;16450;50.288;10.966;2023-11-19T14:53:52;12.13;;;2.37;;
29500;SDS011;16450;50.288;10.966;2023-11-19T14:56:54;9.77;;;1.50;;
29500;SDS011;16450;50.288;10.966;2023-11-19T14:59:56;9.83;;;1.90;;
29500;SDS011;16450;50.288;10.966;2023-11-19T15:02:58;7.50;;;1.50;;
29500;SDS011;16450;50.288;10.966;2023-11-19T15:06:00;12.23;;;2.10;;
29500;SDS011;16450;50.288;10.966;2023-11-19T15:09:02;9.27;;;2.27;;
29500;SDS011;16450;50.288;10.966;2023-11-19T15:12:05;10.53;;;1.87;;
29500;SDS011;16450;50.288;10.966;2023-11-19T15:15:10;10.53;;;1.90;;
29500;SDS011;16450;50.288;10.966;2023-11-19T15:18:14;12.73;;;2.03;;
29500;SDS011;16450;50.288;10.966;2023-11-19T15:21:18;12.17;;;1.77;;
29500;SDS011;16450;50.288;10.966;2023-11-19T15:24:20;8.30;;;1.50;;
29500;SDS011;16450;50.288;10.966;2023-11-19T15:27:22;8.77;;;1.80;;
29500;SDS011;16450;50.288;10.966;2023-11-19T15:30:23;9.67;;;1.73;;
29500;SDS011;16450;50.288;10.966;2023-11-19T15:33:27;10.10;;;1.93;;
29500;SDS011;16450;50.288;10.966;2023-11-19T15:36:29;7.97;;;1.70;;
29500;SDS011;16450;50.288;10.966;2023-11-19T15:39:33;10.57;;;2.03;;
29500;SDS011;16450;50.288;10.966;2023-11-19T15:42:37;12.37;;;2.03;;
29500;SDS011;16450;50.288;10.966;2023-11-19T15:45:39;6.20;;;1.77;;
29500;SDS011;16450;50.288;10.966;2023-11-19T15:48:41;9.17;;;1.80;;
29500;SDS011;16450;50.288;10.966;2023-11-19T15:51:43;8.23;;;1.63;;
29500;SDS011;16450;50.288;10.966;2023-11-19T15:54:44;5.57;;;2.03;;
29500;SDS011;16450;50.288;10.966;2023-11-19T15:57:49;8.67;;;2.47;;
29500;SDS011;16450;50.288;10.966;2023-11-19T16:00:51;7.63;;;1.80;;
29500;SDS011;16450;50.288;10.966;2023-11-19T16:03:53;7.93;;;1.87;;
29500;SDS011;16450;50.288;10.966;2023-11-19T16:06:55;6.87;;;2.20;;
29500;SDS011;16450;50.288;10.966;2023-11-19T16:09:57;7.60;;;2.93;;
29500;SDS011;16450;50.288;10.966;2023-11-19T16:12:59;10.67;;;2.37;;
29500;SDS011;16450;50.288;10.966;2023-11-19T16:16:00;8.70;;;3.37;;
29500;SDS011;16450;50.288;10.966;2023-11-19T16:19:02;9.60;;;3.73;;
29500;SDS011;16450;50.288;10.966;2023-11-19T16:22:07;11.70;;;3.07;;
29500;SDS011;16450;50.288;10.966;2023-11-19T16:25:12;7.47;;;1.90;;
29500;SDS011;16450;50.288;10.966;2023-11-19T16:28:16;11.03;;;1.90;;
29500;SDS011;16450;50.288;10.966;2023-11-19T16:31:18;9.23;;;2.30;;
29500;SDS011;16450;50.288;10.966;2023-11-19T16:34:20;6.87;;;2.27;;
29500;SDS011;16450;50.288;10.966;2023-11-19T16:37:24;5.77;;;1.80;;
29500;SDS011;16450;50.288;10.966;2023-11-19T16:40:27;12.73;;;2.10;;
29500;SDS011;16450;50.288;10.966;2023-11-19T16:43:29;10.53;;;2.00;;
29500;SDS011;16450;50.288;10.966;2023-11-19T16:46:31;9.83;;;2.20;;
29500;SDS011;16450;50.288;10.966;2023-11-19T16:49:33;8.37;;;2.07;;
29500;SDS011;16450;50.288;10.966;2023-11-19T16:52:35;8.13;;;1.93;;
29500;SDS011;16450;50.288;10.966;2023-11-19T16:55:37;8.33;;;1.73;;
29500;SDS011;16450;50.288;10.966;2023-11-19T16:58:39;10.77;;;2.07;;
29500;SDS011;16450;50.288;10.966;2023-11-19T17:01:43;8.70;;;2.17;;
29500;SDS011;16450;50.288;10.966;2023-11-19T17:04:46;8.53;;;2.20;;
29500;SDS011;16450;50.288;10.966;2023-11-19T17:07:48;10.23;;;2.93;;
29500;SDS011;16450;50.288;10.966;2023-11-19T17:10:51;10.33;;;3.03;;
29500;SDS011;16450;50.288;10.966;2023-11-19T17:13:53;7.10;;;2.20;;
29500;SDS011;16450;50.288;10.966;2023-11-19T17:16:55;10.30;;;3.00;;
29500;SDS011;16450;50.288;10.966;2023-11-19T17:19:57;9.07;;;2.67;;
29500;SDS011;16450;50.288;10.966;2023-11-19T17:22:59;7.67;;;3.20;;
29500;SDS011;16450;50.288;10.966;2023-11-19T17:26:02;11.40;;;3.57;;
29500;SDS011;16450;50.288;10.966;2023-11-19T17:29:07;10.30;;;3.00;;
29500;SDS011;16450;50.288;10.966;2023-11-19T17:32:09;13.43;;;2.87;;
29500;SDS011;16450;50.288;10.966;2023-11-19T17:35:11;10.00;;;3.10;;
29500;SDS011;16450;50.288;10.966;2023-11-19T17:38:12;8.57;;;2.20;;
29500;SDS011;16450;50.288;10.966;2023-11-19T17:41:17;10.97;;;2.50;;
29500;SDS011;16450;50.288;10.966;2023-11-19T17:44:19;8.53;;;2.70;;
29500;SDS011;16450;50.288;10.966;2023-11-19T17:47:22;8.53;;;2.40;;
29500;SDS011;16450;50.288;10.966;2023-11-19T17:50:24;9.53;;;2.00;;
29500;SDS011;16450;50.288;10.966;2023-11-19T17:53:27;7.93;;;1.97;;
29500;SDS011;16450;50.288;10.966;2023-11-19T17:56:29;6.53;;;1.90;;
29500;SDS011;16450;50.288;10.966;2023-11-19T17:59:31;6.50;;;1.67;;
29500;SDS011;16450;50.288;10.966;2023-11-19T18:02:33;5.97;;;1.73;;
29500;SDS011;16450;50.288;10.966;2023-11-19T18:05:38;5.30;;;2.70;;
29500;SDS011;16450;50.288;10.966;2023-11-19T18:08:43;6.90;;;2.30;;
29500;SDS011;16450;50.288;10.966;2023-11-19T18:11:45;9.00;;;2.23;;
29500;SDS011;16450;50.288;10.966;2023-11-19T18:14:48;7.63;;;1.93;;
29500;SDS011;16450;50.288;10.966;2023-11-19T18:17:53;10.67;;;2.60;;
29500;SDS011;16450;50.288;10.966;2023-11-19T18:20:55;8.40;;;2.03;;
29500;SDS011;16450;50.288;10.966;2023-11-19T18:23:59;10.20;;;2.47;;
29500;SDS011;16450;50.288;10.966;2023-11-19T18:27:02;9.10;;;3.00;;